METAR stanice u blizini

 

LYBE - Beograd / Surčin, Srbija
Ažurirano: 18/08/2019 10:30
Vedro
Vedro
 Pravac vetra IJI
Vetar: IJI 9 km/h
Temperatura: 27°C
Heat Index: 27°C
Tačka rose: 13°C
Vlažnost: 42%
Pritisak: 1017 hPa
Pregled: Vedro
Vidljivost: greater than 10 km
2019/08/18 08:30 LYBE 180830Z 11005KT 060V150 CAVOK 27/13 Q1017 NOSIG
LYBT - Beograd / Batajnica, Srbija
Ažurirano: 18/08/2019 10:30
Vedro
Vedro
 Pravac vetra IJI
Vetar: IJI 7 km/h
Temperatura: 27°C
Heat Index: 27°C
Tačka rose: 13°C
Vlažnost: 42%
Pritisak: 1017 hPa
Pregled: Vedro
Vidljivost: greater than 10 km
2019/08/18 08:30 LYBT 180830Z 11004KT 020V190 CAVOK 27/13 Q1017 NOSIG
LYVR - Vršac, Srbija
Ažurirano: 18/08/2019 10:30
Few Clouds
Few Clouds
 Pravac vetra JJZ
Vetar: JJZ 6 km/h
Temperatura: 25°C
Tačka rose: 13°C
Vlažnost: 47%
Pritisak: 1017 hPa
Oblaci: Few Clouds
Vidljivost: 10 km
Cloud details: Few Clouds 1219 m
2019/08/18 08:30 LYVR 180830Z 21003KT 100V270 9999 FEW040 25/13 Q1017 NOSIG
 
LYKV - Lađevci, Srbija
Ažurirano: 18/08/2019 10:30
Vedro
Vedro
 Pravac vetra calm
Vetar: Tišina
Temperatura: 23°C
Tačka rose: 14°C
Vlažnost: 57%
Pritisak: 1018 hPa
Pregled: Vedro
Vidljivost: greater than 10 km
2019/08/18 08:30 LYKV 180830Z 00000KT CAVOK 23/14 Q1018 NOSIG
LYNI - Niš, Srbija
Ažurirano: 18/08/2019 10:30
Vedro
Vedro
 Pravac vetra varies
Vetar: varies 2 km/h
Temperatura: 23°C
Tačka rose: 13°C
Vlažnost: 53%
Pritisak: 1019 hPa
Pregled: Vedro
Vidljivost: greater than 10 km
2019/08/18 08:30 LYNI 180830Z VRB01KT CAVOK 23/13 Q1019 NOSIG
BKPR - Priština, Srbija
Ažurirano: 18/08/2019 10:30
Few Clouds
Few Clouds
 Pravac vetra varies
Vetar: varies 6 km/h
Temperatura: 22°C
Tačka rose: 11°C
Vlažnost: 50%
Pritisak: 1020 hPa
Oblaci: Few Clouds
Vidljivost: 10 km
Cloud details: Few Clouds 914 m
2019/08/18 08:30 BKPR 180830Z VRB03KT 9999 FEW030 22/11 Q1020 NOSIG
 
LHPP - Pecs / Pogany, Hungary
Ažurirano: 18/08/2019 10:15
Vedro
Vedro
 Pravac vetra J
Vetar: J 7 km/h
Temperatura: 24°C
Tačka rose: 15°C
Vlažnost: 57%
Pritisak: 1016 hPa
Pregled: Vedro
Vidljivost: greater than 10 km
2019/08/18 08:15 LHPP 180815Z 17004KT CAVOK 24/15 Q1016
LHUD - Szeged, Hungary
Ažurirano: 04/07/2019 01:45
NOT Current
Vedro
Vedro
 Pravac vetra S
Vetar: S 7 km/h
Temperatura: 18°C
Tačka rose: 13°C
Vlažnost: 73%
Pritisak: 1019 hPa
Pregled: Vedro
Vidljivost: greater than 10 km
2019/07/03 23:45 LHUD 032345Z 35004KT CAVOK 18/13 Q1019
LRTR - Timisoara, Romania
Ažurirano: 18/08/2019 10:30
Vedro
Vedro
 Pravac vetra JJI
Vetar: JJI 7 km/h
Temperatura: 25°C
Tačka rose: 14°C
Vlažnost: 51%
Pritisak: 1017 hPa
Pregled: Vedro
Vidljivost: greater than 10 km
2019/08/18 08:30 LRTR 180830Z 16004KT 100V220 CAVOK 25/14 Q1017 NOSIG
 
LRCV - Craiova, Romania
Ažurirano: 18/08/2019 10:30
Vedro
Vedro
 Pravac vetra varies
Vetar: varies 6 km/h
Temperatura: 26°C
Tačka rose: 11°C
Vlažnost: 39%
Pritisak: 1017 hPa
Pregled: Vedro
Vidljivost: greater than 10 km
2019/08/18 08:30 LRCV 180830Z VRB03KT CAVOK 26/11 Q1017
LBSF - Sofia, Bulgaria
Ažurirano: 18/08/2019 10:30
Vedro
Vedro
 Pravac vetra ZSZ
Vetar: ZSZ 6 km/h
Temperatura: 23°C
Tačka rose: 10°C
Vlažnost: 44%
Pritisak: 1019 hPa
Pregled: Vedro
Vidljivost: greater than 10 km
2019/08/18 08:30 LBSF 180830Z 29003KT 210V340 CAVOK 23/10 Q1019 NOSIG
LWSK - Skoplje, Makedonija
Ažurirano: 18/08/2019 10:30
Vedro
Vedro
 Pravac vetra varies
Vetar: varies 2 km/h
Temperatura: 25°C
Tačka rose: 10°C
Vlažnost: 39%
Pritisak: 1018 hPa
Pregled: Vedro
Vidljivost: greater than 10 km
2019/08/18 08:30 LWSK 180830Z VRB01KT CAVOK 25/10 Q1018 NOSIG
 
LYPG - Podgorica, Crna Gora
Ažurirano: 18/08/2019 10:30
Vedro
Vedro
 Pravac vetra calm
Vetar: Tišina
Temperatura: 27°C
Tačka rose: 11°C
Vlažnost: 37%
Pritisak: 1016 hPa
Pregled: Vedro
Vidljivost: greater than 10 km
2019/08/18 08:30 LYPG 180830Z 00000KT CAVOK 27/11 Q1016 NOSIG
LQSA - Sarajevo, Bosna i Hercegovina
Ažurirano: 18/08/2019 10:30
Vedro
Vedro
 Pravac vetra varies
Vetar: varies 4 km/h
Temperatura: 20°C
Tačka rose: 11°C
Vlažnost: 56%
Pritisak: 1019 hPa
Pregled: Vedro
Vidljivost: greater than 10 km
2019/08/18 08:30 LQSA 180830Z VRB02KT CAVOK 20/11 Q1019 NOSIG
LDOS - Osijek, Hrvatksa
Ažurirano: 18/08/2019 10:30
Vedro
Vedro
 Pravac vetra J
Vetar: J 11 km/h
Temperatura: 25°C
Tačka rose: 15°C
Vlažnost: 54%
Pritisak: 1016 hPa
Pregled: Vedro
Vidljivost: greater than 10 km
2019/08/18 08:30 LDOS 180830Z 17006KT 140V210 CAVOK 25/15 Q1016